الصفحة الرئيسية
METAR-TAF:

METAR-TAF

مطار :

Omak Airport

Omak, واشنطن, الولايات المتحدة

دائرة عرض: 48-27-51N, خط طول: 119-31-05W, ارتفاع: 397 متر

مراقبة الطقس الحالي

تاريخ ووقت الإصدار 1ساعة و 7 دقيقة قبل الساعة 16:53UTC
ريح 6 عقدة من الجنوب/الجنوب الشرقي
درجة الحرارة 12°درجة مئوية
الرطوبة 44%
ضغط 1023 hPa
الرؤية: 16.1 كم
غيوم متفرقة على ارتفاع 12000 قدم

METAR: KOMK 221653Z AUTO 16006KT 10SM SCT120 12/00 A3020 RMK AO2 SLP228 T01170000

زمن: 11:00 (18:00 UTC)


TAF: مفقودة

أرصاد الطقس والتوقعات من أكثر من 4000 مطار (تقارير الطقس للمطار METAR والتنبؤ بالطقس بالمطارTAF).

المحطات المتاحة هي النقط الصفراء والحمراء على الخريطة.

حرك المؤشر فوق النقطة لمعرفة اسم المحطة.

ثم انقر لمعرفة أرصاد وتوقعات الطقس.

لتغيير الخارطة: اضغط على الأزرار الخضراء مع رمز الصليب الأسود للتكبير. على الزر الأخضر مع شرطة للتصغير، أو على الأسهم الخضراء للخرائط المجاورة.


METAR-TAF: